VIR2281 KJFK-EKCH
Flight info
| Callsign | VIR2281 |
|---|---|
| Flight time | N/A |
| Altitude | 37000 |
| Route | MERIT DCT HFD DCT PUT DCT BOS DCT TUSKY DCT NEEKO/M079F390 NATQ SOVED/N0455F390 DCT APSOV DCT TUXOS DCT SURAT DCT PETIL DCT TESPI |
| Aircraft | A343/H-SDE2E3FGHIJ4J5M1RWXY/LB1D1 |
Departure
| Time | 2026-05-09 00:02 |
|---|---|
| Airport | John F. Kennedy International Airport (KJFK) |
Arrival
| Time | N/A |
|---|---|
| Airport | Copenhagen Kastrup Airport (EKCH) |
| Time | Latitude | Longitude | Altitude | Speed | Heading |
|---|---|---|---|---|---|
| 2026-05-08 23:24 | 40.64042 | -73.78283 | 24 ft | 0 kts | 61° |
| 2026-05-08 23:49 | 40.64042 | -73.78284 | 24 ft | 1 kts | 61° |
| 2026-05-08 23:50 | 40.64028 | -73.78309 | 30 ft | 4 kts | 50° |
| 2026-05-08 23:50 | 40.64012 | -73.78337 | 30 ft | 4 kts | 68° |
| 2026-05-08 23:50 | 40.64008 | -73.78369 | 30 ft | 4 kts | 110° |
| 2026-05-08 23:50 | 40.64019 | -73.78389 | 30 ft | 0 kts | 151° |
| 2026-05-08 23:53 | 40.64009 | -73.78382 | 28 ft | 4 kts | 151° |
| 2026-05-08 23:54 | 40.63970 | -73.78353 | 30 ft | 9 kts | 151° |
| 2026-05-08 23:54 | 40.63899 | -73.78304 | 28 ft | 14 kts | 157° |
| 2026-05-08 23:54 | 40.63803 | -73.78282 | 27 ft | 14 kts | 174° |
| 2026-05-08 23:55 | 40.63607 | -73.78254 | 27 ft | 11 kts | 179° |
| 2026-05-08 23:55 | 40.63596 | -73.78254 | 27 ft | 0 kts | 184° |
| 2026-05-08 23:56 | 40.63588 | -73.78256 | 27 ft | 3 kts | 187° |
| 2026-05-08 23:56 | 40.63553 | -73.78270 | 29 ft | 7 kts | 195° |
| 2026-05-08 23:56 | 40.63504 | -73.78242 | 29 ft | 9 kts | 134° |
| 2026-05-08 23:56 | 40.63462 | -73.78158 | 30 ft | 13 kts | 122° |
| 2026-05-08 23:57 | 40.63414 | -73.78048 | 29 ft | 15 kts | 118° |
| 2026-05-08 23:57 | 40.63358 | -73.77914 | 31 ft | 18 kts | 120° |
| 2026-05-08 23:57 | 40.63298 | -73.77782 | 27 ft | 16 kts | 121° |
| 2026-05-08 23:57 | 40.63242 | -73.77659 | 27 ft | 16 kts | 121° |
| 2026-05-08 23:58 | 40.63185 | -73.77534 | 28 ft | 16 kts | 121° |
| 2026-05-08 23:58 | 40.63128 | -73.77407 | 30 ft | 16 kts | 121° |
| 2026-05-08 23:58 | 40.63071 | -73.77282 | 28 ft | 16 kts | 121° |
| 2026-05-08 23:58 | 40.63024 | -73.77179 | 30 ft | 7 kts | 121° |
| 2026-05-08 23:59 | 40.62997 | -73.77119 | 29 ft | 8 kts | 121° |
| 2026-05-08 23:59 | 40.62958 | -73.77082 | 30 ft | 7 kts | 178° |
| 2026-05-08 23:59 | 40.62915 | -73.77112 | 28 ft | 8 kts | 210° |
| 2026-05-08 23:59 | 40.62866 | -73.77149 | 29 ft | 8 kts | 210° |
| 2026-05-09 00:00 | 40.62825 | -73.77193 | 31 ft | 7 kts | 236° |
| 2026-05-09 00:00 | 40.62831 | -73.77249 | 29 ft | 6 kts | 295° |
| 2026-05-09 00:00 | 40.62840 | -73.77268 | 32 ft | 0 kts | 302° |
| 2026-05-09 00:01 | 40.62840 | -73.77269 | 32 ft | 4 kts | 302° |
| 2026-05-09 00:01 | 40.62990 | -73.77592 | 29 ft | 79 kts | 301° |
| 2026-05-09 00:01 | 40.63387 | -73.78475 | 29 ft | 144 kts | 301° |
| 2026-05-09 00:01 | 40.63992 | -73.79802 | 192 ft | 182 kts | 301° |
| 2026-05-09 00:02 | 40.64635 | -73.81193 | 1006 ft | 179 kts | 298° |
| 2026-05-09 00:02 | 40.64768 | -73.81722 | 1220 ft | 182 kts | 281° |
| 2026-05-09 00:02 | 40.62851 | -73.84868 | 3176 ft | 186 kts | 214° |
| 2026-05-09 00:03 | 40.61799 | -73.85881 | 3675 ft | 193 kts | 226° |
| 2026-05-09 00:03 | 40.60779 | -73.87182 | 3964 ft | 217 kts | 225° |
| 2026-05-09 00:03 | 40.59403 | -73.88158 | 4542 ft | 236 kts | 197° |
| 2026-05-09 00:03 | 40.57703 | -73.87986 | 5143 ft | 259 kts | 166° |
| 2026-05-09 00:04 | 40.56010 | -73.87031 | 5842 ft | 269 kts | 161° |
| 2026-05-09 00:04 | 40.54283 | -73.86030 | 6553 ft | 272 kts | 168° |
| 2026-05-09 00:04 | 40.52465 | -73.85509 | 7226 ft | 271 kts | 180° |
| 2026-05-09 00:04 | 40.50581 | -73.85220 | 7947 ft | 274 kts | 181° |
| 2026-05-09 00:05 | 40.48665 | -73.84961 | 8680 ft | 278 kts | 182° |
| 2026-05-09 00:05 | 40.46736 | -73.84428 | 9379 ft | 294 kts | 163° |
| 2026-05-09 00:05 | 40.45011 | -73.82867 | 10052 ft | 312 kts | 138° |
| 2026-05-09 00:05 | 40.43796 | -73.80405 | 10408 ft | 336 kts | 114° |
| 2026-05-09 00:06 | 40.43324 | -73.77327 | 10674 ft | 355 kts | 89° |
| 2026-05-09 00:06 | 40.43738 | -73.74097 | 10935 ft | 366 kts | 66° |
| 2026-05-09 00:06 | 40.45003 | -73.71195 | 11183 ft | 371 kts | 45° |
| 2026-05-09 00:06 | 40.46759 | -73.68748 | 11580 ft | 372 kts | 34° |
| 2026-05-09 00:07 | 40.48844 | -73.66813 | 12316 ft | 364 kts | 24° |
| 2026-05-09 00:07 | 40.51036 | -73.65182 | 13035 ft | 361 kts | 19° |
| 2026-05-09 00:07 | 40.53276 | -73.63739 | 13867 ft | 355 kts | 15° |
| 2026-05-09 00:07 | 40.55527 | -73.62407 | 14516 ft | 356 kts | 14° |
| 2026-05-09 00:08 | 40.57813 | -73.61111 | 15003 ft | 361 kts | 14° |
| 2026-05-09 00:08 | 40.60136 | -73.59809 | 15527 ft | 366 kts | 14° |
| 2026-05-09 00:08 | 40.62490 | -73.58479 | 16048 ft | 371 kts | 14° |
| 2026-05-09 00:08 | 40.64867 | -73.57118 | 16614 ft | 374 kts | 15° |
| 2026-05-09 00:09 | 40.67265 | -73.55730 | 16962 ft | 378 kts | 15° |
| 2026-05-09 00:09 | 40.69635 | -73.54344 | 17026 ft | 378 kts | 15° |
| 2026-05-09 00:09 | 40.72041 | -73.52931 | 17019 ft | 379 kts | 15° |
| 2026-05-09 00:09 | 40.74451 | -73.51514 | 17025 ft | 380 kts | 15° |
| 2026-05-09 00:10 | 40.76861 | -73.50095 | 17124 ft | 380 kts | 15° |
| 2026-05-09 00:10 | 40.79286 | -73.48671 | 17591 ft | 383 kts | 15° |
| 2026-05-09 00:10 | 40.81732 | -73.47236 | 18178 ft | 386 kts | 15° |
| 2026-05-09 00:10 | 40.84192 | -73.45793 | 18681 ft | 388 kts | 15° |
| 2026-05-09 00:11 | 40.86675 | -73.44336 | 19152 ft | 392 kts | 15° |
| 2026-05-09 00:11 | 40.89176 | -73.42866 | 19644 ft | 395 kts | 15° |
| 2026-05-09 00:11 | 40.91693 | -73.41383 | 20114 ft | 398 kts | 15° |
| 2026-05-09 00:11 | 40.94234 | -73.39886 | 20580 ft | 401 kts | 15° |
| 2026-05-09 00:12 | 40.96760 | -73.38396 | 21030 ft | 405 kts | 15° |
| 2026-05-09 00:12 | 40.99344 | -73.36871 | 21499 ft | 408 kts | 15° |
| 2026-05-09 00:12 | 41.01941 | -73.35336 | 21940 ft | 411 kts | 15° |
| 2026-05-09 00:12 | 41.04564 | -73.33784 | 22396 ft | 414 kts | 15° |
| 2026-05-09 00:13 | 41.07202 | -73.32221 | 22830 ft | 417 kts | 14° |
| 2026-05-09 00:13 | 41.09863 | -73.30645 | 23258 ft | 420 kts | 14° |
| 2026-05-09 00:13 | 41.12540 | -73.29057 | 23652 ft | 423 kts | 14° |
| 2026-05-09 00:13 | 41.15232 | -73.27458 | 23997 ft | 426 kts | 14° |
| 2026-05-09 00:14 | 41.17952 | -73.25842 | 24374 ft | 429 kts | 14° |
| 2026-05-09 00:14 | 41.20679 | -73.24219 | 24703 ft | 431 kts | 14° |
| 2026-05-09 00:14 | 41.23427 | -73.22583 | 25043 ft | 434 kts | 14° |
| 2026-05-09 00:14 | 41.26149 | -73.20960 | 25363 ft | 436 kts | 14° |
| 2026-05-09 00:15 | 41.28930 | -73.19301 | 25686 ft | 439 kts | 14° |
| 2026-05-09 00:15 | 41.31721 | -73.17635 | 26007 ft | 442 kts | 14° |
| 2026-05-09 00:15 | 41.34506 | -73.15812 | 26300 ft | 452 kts | 20° |
| 2026-05-09 00:15 | 41.37135 | -73.13416 | 26648 ft | 467 kts | 31° |
| 2026-05-09 00:16 | 41.39483 | -73.10338 | 26962 ft | 481 kts | 41° |
| 2026-05-09 00:16 | 41.41529 | -73.06750 | 27234 ft | 491 kts | 49° |
| 2026-05-09 00:16 | 41.43364 | -73.02875 | 27521 ft | 498 kts | 52° |
| 2026-05-09 00:16 | 41.45090 | -72.98866 | 27809 ft | 502 kts | 54° |
| 2026-05-09 00:17 | 41.46791 | -72.94784 | 28072 ft | 504 kts | 54° |
| 2026-05-09 00:17 | 41.48501 | -72.90693 | 28359 ft | 506 kts | 54° |
| 2026-05-09 00:17 | 41.50239 | -72.86598 | 28631 ft | 508 kts | 53° |
| 2026-05-09 00:17 | 41.52005 | -72.82498 | 28883 ft | 510 kts | 53° |
| 2026-05-09 00:18 | 41.53791 | -72.78392 | 29131 ft | 513 kts | 53° |
| 2026-05-09 00:18 | 41.55569 | -72.74327 | 29397 ft | 515 kts | 53° |
| 2026-05-09 00:18 | 41.57379 | -72.70197 | 29649 ft | 517 kts | 53° |
| 2026-05-09 00:18 | 41.59198 | -72.66043 | 29887 ft | 519 kts | 53° |
| 2026-05-09 00:19 | 41.61026 | -72.61863 | 30097 ft | 522 kts | 53° |
| 2026-05-09 00:19 | 41.62856 | -72.57667 | 30294 ft | 524 kts | 53° |
| 2026-05-09 00:19 | 41.64692 | -72.53452 | 30501 ft | 525 kts | 53° |
| 2026-05-09 00:19 | 41.66559 | -72.49245 | 30683 ft | 527 kts | 52° |
| 2026-05-09 00:20 | 41.68455 | -72.45045 | 30929 ft | 528 kts | 52° |
| 2026-05-09 00:20 | 41.70364 | -72.40840 | 31094 ft | 530 kts | 52° |
| 2026-05-09 00:20 | 41.72281 | -72.36614 | 31275 ft | 532 kts | 52° |
| 2026-05-09 00:20 | 41.74199 | -72.32370 | 31509 ft | 533 kts | 52° |
| 2026-05-09 00:21 | 41.76085 | -72.28180 | 31736 ft | 533 kts | 52° |
| 2026-05-09 00:21 | 41.77996 | -72.23918 | 31988 ft | 534 kts | 52° |
| 2026-05-09 00:21 | 41.79902 | -72.19657 | 32270 ft | 533 kts | 52° |
| 2026-05-09 00:21 | 41.81807 | -72.15389 | 32483 ft | 534 kts | 52° |
| 2026-05-09 00:22 | 41.83710 | -72.11123 | 32830 ft | 532 kts | 53° |
| 2026-05-09 00:22 | 41.85605 | -72.06863 | 33159 ft | 531 kts | 53° |
| 2026-05-09 00:22 | 41.87495 | -72.02612 | 33347 ft | 532 kts | 53° |
| 2026-05-09 00:22 | 41.89392 | -71.98340 | 33552 ft | 532 kts | 53° |
| 2026-05-09 00:23 | 41.91284 | -71.94076 | 33773 ft | 532 kts | 53° |
| 2026-05-09 00:23 | 41.93175 | -71.89805 | 33963 ft | 533 kts | 53° |
| 2026-05-09 00:23 | 41.95072 | -71.85517 | 34142 ft | 533 kts | 53° |
| 2026-05-09 00:23 | 41.96951 | -71.81307 | 34342 ft | 533 kts | 52° |
| 2026-05-09 00:24 | 41.98919 | -71.77105 | 34614 ft | 529 kts | 51° |
| 2026-05-09 00:24 | 42.00911 | -71.72958 | 34836 ft | 528 kts | 51° |
| 2026-05-09 00:24 | 42.02912 | -71.68819 | 34978 ft | 528 kts | 51° |
| 2026-05-09 00:24 | 42.04915 | -71.64667 | 35128 ft | 529 kts | 51° |
| 2026-05-09 00:25 | 42.06908 | -71.60507 | 35285 ft | 529 kts | 51° |
| 2026-05-09 00:25 | 42.08891 | -71.56340 | 35455 ft | 529 kts | 51° |
| 2026-05-09 00:25 | 42.10872 | -71.52156 | 35585 ft | 530 kts | 51° |
| 2026-05-09 00:25 | 42.12848 | -71.47969 | 35757 ft | 529 kts | 52° |
| 2026-05-09 00:26 | 42.14816 | -71.43788 | 35983 ft | 528 kts | 52° |
| 2026-05-09 00:26 | 42.16782 | -71.39604 | 36120 ft | 529 kts | 52° |
| 2026-05-09 00:26 | 42.18746 | -71.35421 | 36250 ft | 529 kts | 52° |
| 2026-05-09 00:26 | 42.20691 | -71.31274 | 36363 ft | 530 kts | 52° |
| 2026-05-09 00:27 | 42.22660 | -71.27071 | 36497 ft | 530 kts | 52° |
| 2026-05-09 00:27 | 42.24625 | -71.22870 | 36649 ft | 530 kts | 52° |
| 2026-05-09 00:27 | 42.26590 | -71.18663 | 36805 ft | 530 kts | 52° |
| 2026-05-09 00:27 | 42.28553 | -71.14455 | 36926 ft | 531 kts | 52° |
| 2026-05-09 00:28 | 42.30520 | -71.10233 | 36926 ft | 530 kts | 52° |
| 2026-05-09 00:28 | 42.34422 | -71.01831 | 36923 ft | 526 kts | 52° |
| 2026-05-09 00:29 | 42.37728 | -70.92931 | 36925 ft | 532 kts | 61° |
| 2026-05-09 00:29 | 42.40716 | -70.83841 | 36950 ft | 533 kts | 62° |
| 2026-05-09 00:30 | 42.43666 | -70.74660 | 36910 ft | 531 kts | 62° |
| 2026-05-09 00:30 | 42.46609 | -70.65493 | 36912 ft | 531 kts | 62° |
| 2026-05-09 00:31 | 42.49556 | -70.56319 | 36910 ft | 531 kts | 62° |
| 2026-05-09 00:31 | 42.52479 | -70.47204 | 36911 ft | 531 kts | 62° |
| 2026-05-09 00:32 | 42.55408 | -70.38036 | 36915 ft | 529 kts | 63° |
| 2026-05-09 00:32 | 42.58329 | -70.28861 | 36919 ft | 529 kts | 63° |
| 2026-05-09 00:33 | 42.61237 | -70.19696 | 36930 ft | 529 kts | 63° |
| 2026-05-09 00:33 | 42.64142 | -70.10511 | 36930 ft | 529 kts | 63° |
| 2026-05-09 00:34 | 42.67017 | -70.01386 | 36946 ft | 529 kts | 63° |
| 2026-05-09 00:34 | 42.69901 | -69.92199 | 36942 ft | 528 kts | 63° |
| 2026-05-09 00:35 | 42.72776 | -69.83012 | 36937 ft | 528 kts | 63° |
| 2026-05-09 00:35 | 42.75648 | -69.73805 | 36936 ft | 529 kts | 63° |
| 2026-05-09 00:36 | 42.78514 | -69.64582 | 36948 ft | 529 kts | 64° |
| 2026-05-09 00:36 | 42.81348 | -69.55429 | 36930 ft | 528 kts | 64° |
| 2026-05-09 00:37 | 42.84191 | -69.46213 | 36936 ft | 528 kts | 64° |
| 2026-05-09 00:37 | 42.87033 | -69.36971 | 36935 ft | 529 kts | 64° |
| 2026-05-09 00:38 | 42.89867 | -69.27722 | 36939 ft | 529 kts | 64° |
| 2026-05-09 00:38 | 42.92696 | -69.18456 | 36931 ft | 529 kts | 64° |
| 2026-05-09 00:39 | 42.95497 | -69.09251 | 36939 ft | 529 kts | 64° |
| 2026-05-09 00:39 | 42.98313 | -68.99963 | 36939 ft | 529 kts | 64° |
| 2026-05-09 00:40 | 43.01121 | -68.90666 | 36961 ft | 529 kts | 64° |
| 2026-05-09 00:40 | 43.03917 | -68.81374 | 36943 ft | 528 kts | 64° |
| 2026-05-09 00:41 | 43.08072 | -68.67506 | 36938 ft | 528 kts | 65° |
| 2026-05-09 00:41 | 43.10846 | -68.58209 | 36943 ft | 528 kts | 65° |
| 2026-05-09 00:42 | 43.13612 | -68.48903 | 36953 ft | 528 kts | 65° |
| 2026-05-09 00:42 | 43.16363 | -68.39609 | 36935 ft | 525 kts | 65° |
| 2026-05-09 00:43 | 43.19097 | -68.30344 | 36928 ft | 525 kts | 65° |
| 2026-05-09 00:43 | 43.21824 | -68.21067 | 36949 ft | 525 kts | 65° |
| 2026-05-09 00:44 | 43.24525 | -68.11846 | 36953 ft | 525 kts | 65° |
| 2026-05-09 00:44 | 43.27233 | -68.02570 | 36938 ft | 522 kts | 66° |
| 2026-05-09 00:45 | 43.29922 | -67.93320 | 36939 ft | 522 kts | 66° |
| 2026-05-09 00:45 | 43.32605 | -67.84061 | 36935 ft | 522 kts | 66° |
| 2026-05-09 00:46 | 43.35281 | -67.74790 | 36933 ft | 522 kts | 66° |
| 2026-05-09 00:46 | 43.37933 | -67.65571 | 36941 ft | 522 kts | 66° |
| 2026-05-09 00:47 | 43.40595 | -67.56281 | 36935 ft | 522 kts | 66° |
| 2026-05-09 00:47 | 43.43247 | -67.46990 | 36935 ft | 522 kts | 66° |
| 2026-05-09 00:48 | 43.45893 | -67.37686 | 36933 ft | 522 kts | 66° |
| 2026-05-09 00:48 | 43.48532 | -67.28374 | 36933 ft | 522 kts | 66° |
| 2026-05-09 00:49 | 43.51144 | -67.19122 | 36930 ft | 522 kts | 66° |
| 2026-05-09 00:49 | 43.53768 | -67.09793 | 36930 ft | 522 kts | 67° |
| 2026-05-09 00:50 | 43.57067 | -67.00973 | 36927 ft | 514 kts | 49° |
| 2026-05-09 00:50 | 43.59439 | -66.97345 | 36955 ft | 506 kts | 37° |
| 2026-05-09 00:50 | 43.62141 | -66.94253 | 36936 ft | 503 kts | 33° |
| 2026-05-09 00:51 | 43.67711 | -66.88504 | 36926 ft | 503 kts | 31° |
| 2026-05-09 00:51 | 43.73385 | -66.82842 | 36923 ft | 503 kts | 31° |
| 2026-05-09 00:52 | 43.79050 | -66.77138 | 36925 ft | 503 kts | 31° |
| 2026-05-09 00:52 | 43.84691 | -66.71397 | 36904 ft | 503 kts | 32° |
| 2026-05-09 00:53 | 43.90290 | -66.65668 | 36913 ft | 503 kts | 32° |
| 2026-05-09 00:53 | 43.95918 | -66.59896 | 36899 ft | 503 kts | 32° |
| 2026-05-09 00:54 | 44.01546 | -66.54111 | 36898 ft | 503 kts | 32° |
| 2026-05-09 00:54 | 44.07167 | -66.48320 | 36888 ft | 503 kts | 32° |
| 2026-05-09 00:55 | 44.12744 | -66.42560 | 36883 ft | 503 kts | 32° |
| 2026-05-09 00:55 | 44.18357 | -66.36750 | 36873 ft | 503 kts | 32° |
| 2026-05-09 00:56 | 44.23964 | -66.30931 | 36870 ft | 503 kts | 32° |
| 2026-05-09 00:56 | 44.29570 | -66.25100 | 36868 ft | 503 kts | 32° |
| 2026-05-09 00:57 | 44.35135 | -66.19298 | 36870 ft | 503 kts | 33° |
| 2026-05-09 00:57 | 44.40730 | -66.13449 | 36870 ft | 503 kts | 33° |
| 2026-05-09 00:58 | 44.46332 | -66.07579 | 36872 ft | 503 kts | 33° |
| 2026-05-09 00:58 | 44.51923 | -66.01706 | 36854 ft | 503 kts | 33° |
| 2026-05-09 00:59 | 44.57519 | -65.95814 | 36878 ft | 503 kts | 33° |
| 2026-05-09 00:59 | 44.63080 | -65.89944 | 36872 ft | 504 kts | 33° |
| 2026-05-09 01:00 | 44.68672 | -65.84025 | 36873 ft | 503 kts | 33° |
| 2026-05-09 01:00 | 44.74265 | -65.78092 | 36874 ft | 503 kts | 33° |
| 2026-05-09 01:01 | 44.79853 | -65.72150 | 36875 ft | 504 kts | 34° |
| 2026-05-09 01:01 | 44.85441 | -65.66192 | 36875 ft | 504 kts | 34° |
| 2026-05-09 01:02 | 44.90986 | -65.60265 | 36871 ft | 504 kts | 34° |
| 2026-05-09 01:02 | 44.96570 | -65.54283 | 36873 ft | 504 kts | 34° |
| 2026-05-09 01:03 | 45.02091 | -65.48353 | 36870 ft | 504 kts | 34° |
| 2026-05-09 01:03 | 45.07670 | -65.42345 | 36867 ft | 504 kts | 34° |
| 2026-05-09 01:04 | 45.13248 | -65.36325 | 36868 ft | 504 kts | 34° |
| 2026-05-09 01:04 | 45.18780 | -65.30337 | 36862 ft | 504 kts | 35° |
| 2026-05-09 01:05 | 45.24347 | -65.24296 | 36853 ft | 504 kts | 35° |
| 2026-05-09 01:06 | 45.32697 | -65.15208 | 36855 ft | 505 kts | 35° |
| 2026-05-09 01:06 | 45.38228 | -65.09168 | 36851 ft | 505 kts | 35° |
| 2026-05-09 01:07 | 45.43795 | -65.03075 | 36848 ft | 505 kts | 35° |
| 2026-05-09 01:07 | 45.49357 | -64.96972 | 36842 ft | 505 kts | 36° |
| 2026-05-09 01:08 | 45.54918 | -64.90853 | 36839 ft | 505 kts | 36° |
| 2026-05-09 01:08 | 45.60476 | -64.84721 | 36846 ft | 505 kts | 36° |
| 2026-05-09 01:09 | 45.65995 | -64.78617 | 36832 ft | 505 kts | 36° |
| 2026-05-09 01:09 | 45.71552 | -64.72455 | 36827 ft | 505 kts | 36° |
| 2026-05-09 01:10 | 45.77098 | -64.66290 | 36838 ft | 505 kts | 36° |
| 2026-05-09 01:10 | 45.82648 | -64.60104 | 36812 ft | 505 kts | 36° |
| 2026-05-09 01:11 | 45.88192 | -64.53909 | 36809 ft | 505 kts | 36° |
| 2026-05-09 01:11 | 45.93693 | -64.47747 | 36807 ft | 505 kts | 36° |
| 2026-05-09 01:12 | 45.99229 | -64.41528 | 36798 ft | 505 kts | 36° |
| 2026-05-09 01:12 | 46.04762 | -64.35297 | 36818 ft | 505 kts | 36° |
| 2026-05-09 01:13 | 46.10293 | -64.29051 | 36813 ft | 505 kts | 36° |
| 2026-05-09 01:13 | 46.15781 | -64.22840 | 36814 ft | 505 kts | 37° |
| 2026-05-09 01:14 | 46.21312 | -64.16562 | 36812 ft | 506 kts | 37° |
| 2026-05-09 01:14 | 46.26834 | -64.10277 | 36805 ft | 505 kts | 37° |
| 2026-05-09 01:15 | 46.32359 | -64.03974 | 36804 ft | 506 kts | 37° |
| 2026-05-09 01:15 | 46.37882 | -63.97655 | 36806 ft | 506 kts | 37° |
| 2026-05-09 01:16 | 46.43371 | -63.91358 | 36805 ft | 506 kts | 37° |
| 2026-05-09 01:16 | 46.48888 | -63.85012 | 36810 ft | 507 kts | 38° |
| 2026-05-09 01:17 | 46.57169 | -63.75455 | 36810 ft | 507 kts | 38° |
| 2026-05-09 01:17 | 46.62645 | -63.69115 | 36815 ft | 507 kts | 38° |
| 2026-05-09 01:18 | 46.68159 | -63.62713 | 36821 ft | 507 kts | 38° |
| 2026-05-09 01:18 | 46.73679 | -63.56288 | 36820 ft | 508 kts | 38° |
| 2026-05-09 01:19 | 46.79190 | -63.49855 | 36826 ft | 508 kts | 38° |
| 2026-05-09 01:19 | 46.84667 | -63.43446 | 36829 ft | 508 kts | 38° |
| 2026-05-09 01:20 | 46.90172 | -63.36985 | 36832 ft | 508 kts | 38° |
| 2026-05-09 01:20 | 46.95679 | -63.30504 | 36834 ft | 508 kts | 38° |
| 2026-05-09 01:21 | 47.01182 | -63.24012 | 36836 ft | 508 kts | 39° |
| 2026-05-09 01:21 | 47.06675 | -63.17512 | 36829 ft | 508 kts | 39° |
| 2026-05-09 01:22 | 47.12134 | -63.11036 | 36827 ft | 508 kts | 39° |
| 2026-05-09 01:22 | 47.17629 | -63.04498 | 36822 ft | 509 kts | 39° |
| 2026-05-09 01:23 | 47.23142 | -62.97922 | 36824 ft | 511 kts | 39° |
| 2026-05-09 01:23 | 47.28654 | -62.91329 | 36839 ft | 511 kts | 39° |
| 2026-05-09 01:24 | 47.34134 | -62.84754 | 36825 ft | 511 kts | 40° |
| 2026-05-09 01:24 | 47.39637 | -62.78136 | 36821 ft | 511 kts | 40° |
| 2026-05-09 01:25 | 47.45150 | -62.71486 | 36818 ft | 511 kts | 40° |
| 2026-05-09 01:25 | 47.50652 | -62.64830 | 36817 ft | 511 kts | 40° |
| 2026-05-09 01:26 | 47.56157 | -62.58153 | 36825 ft | 512 kts | 40° |
| 2026-05-09 01:26 | 47.61633 | -62.51491 | 36807 ft | 513 kts | 40° |
| 2026-05-09 01:27 | 47.67143 | -62.44771 | 36802 ft | 513 kts | 40° |
| 2026-05-09 01:27 | 47.72641 | -62.38046 | 36814 ft | 513 kts | 40° |
| 2026-05-09 01:28 | 47.78143 | -62.31296 | 36797 ft | 512 kts | 40° |
| 2026-05-09 01:28 | 47.83599 | -62.24584 | 36800 ft | 513 kts | 40° |
| 2026-05-09 01:29 | 47.89087 | -62.17813 | 36802 ft | 513 kts | 41° |
| 2026-05-09 01:29 | 47.94581 | -62.11017 | 36802 ft | 513 kts | 41° |
| 2026-05-09 01:30 | 48.00074 | -62.04201 | 36802 ft | 514 kts | 41° |
| 2026-05-09 01:30 | 48.05530 | -61.97413 | 36787 ft | 513 kts | 41° |
| 2026-05-09 01:31 | 48.11014 | -61.90570 | 36804 ft | 514 kts | 41° |
| 2026-05-09 01:31 | 48.16505 | -61.83698 | 36799 ft | 514 kts | 41° |
| 2026-05-09 01:32 | 48.21991 | -61.76812 | 36782 ft | 514 kts | 41° |
| 2026-05-09 01:32 | 48.27438 | -61.69956 | 36795 ft | 515 kts | 41° |
| 2026-05-09 01:33 | 48.32916 | -61.63041 | 36771 ft | 515 kts | 42° |
| 2026-05-09 01:33 | 48.38394 | -61.56105 | 36786 ft | 515 kts | 42° |
| 2026-05-09 01:34 | 48.43866 | -61.49159 | 36778 ft | 515 kts | 42° |
| 2026-05-09 01:34 | 48.49339 | -61.42190 | 36777 ft | 515 kts | 42° |
| 2026-05-09 01:35 | 48.54771 | -61.35251 | 36770 ft | 515 kts | 42° |
| 2026-05-09 01:35 | 48.60233 | -61.28254 | 36759 ft | 515 kts | 43° |
| 2026-05-09 01:36 | 48.65692 | -61.21242 | 36760 ft | 515 kts | 43° |
| 2026-05-09 01:36 | 48.71150 | -61.14210 | 36765 ft | 515 kts | 43° |
| 2026-05-09 01:37 | 48.76557 | -61.07222 | 36762 ft | 515 kts | 43° |
| 2026-05-09 01:37 | 48.82003 | -61.00165 | 36754 ft | 515 kts | 43° |
| 2026-05-09 01:38 | 48.87446 | -60.93089 | 36759 ft | 515 kts | 43° |
| 2026-05-09 01:38 | 48.92883 | -60.85999 | 36753 ft | 515 kts | 43° |
| 2026-05-09 01:39 | 48.98280 | -60.78943 | 36753 ft | 515 kts | 44° |
| 2026-05-09 01:39 | 49.03711 | -60.71819 | 36750 ft | 515 kts | 44° |
| 2026-05-09 01:40 | 49.09135 | -60.64684 | 36752 ft | 515 kts | 44° |
| 2026-05-09 01:40 | 49.14560 | -60.57526 | 36738 ft | 515 kts | 44° |
| 2026-05-09 01:41 | 49.19991 | -60.50340 | 36746 ft | 517 kts | 44° |
| 2026-05-09 01:41 | 49.25416 | -60.43138 | 36747 ft | 517 kts | 44° |
| 2026-05-09 01:42 | 49.30806 | -60.35961 | 36746 ft | 517 kts | 44° |
| 2026-05-09 01:42 | 49.36230 | -60.28718 | 36743 ft | 517 kts | 45° |
| 2026-05-09 01:43 | 49.41652 | -60.21454 | 36744 ft | 518 kts | 45° |
| 2026-05-09 01:43 | 49.47081 | -60.14160 | 36743 ft | 518 kts | 45° |
| 2026-05-09 01:44 | 49.52458 | -60.06913 | 36741 ft | 518 kts | 45° |
| 2026-05-09 01:44 | 49.57872 | -59.99595 | 36738 ft | 518 kts | 45° |
| 2026-05-09 01:45 | 49.63280 | -59.92261 | 36738 ft | 518 kts | 45° |
| 2026-05-09 01:45 | 49.68685 | -59.84909 | 36738 ft | 518 kts | 45° |
| 2026-05-09 01:46 | 49.74049 | -59.77592 | 36736 ft | 518 kts | 45° |
| 2026-05-09 01:46 | 49.79454 | -59.70194 | 36733 ft | 519 kts | 45° |
| 2026-05-09 01:47 | 49.84852 | -59.62783 | 36730 ft | 519 kts | 45° |
| 2026-05-09 01:47 | 49.90244 | -59.55358 | 36698 ft | 519 kts | 46° |
| 2026-05-09 01:48 | 49.95607 | -59.47948 | 36730 ft | 521 kts | 46° |
| 2026-05-09 01:48 | 50.01017 | -59.40451 | 36727 ft | 521 kts | 46° |
| 2026-05-09 01:49 | 50.05510 | -59.34209 | 36728 ft | 521 kts | 46° |
| 2026-05-09 01:49 | 50.10915 | -59.26675 | 36725 ft | 521 kts | 46° |
| 2026-05-09 01:50 | 50.16313 | -59.19129 | 36723 ft | 522 kts | 46° |
| 2026-05-09 01:50 | 50.22585 | -59.10329 | 36720 ft | 522 kts | 46° |